createdAt,value
2023-03-13T00:01:22.099Z,68.02
2023-03-13T00:03:50.008Z,68.14
2023-03-13T00:06:18.050Z,68.23
2023-03-13T00:08:46.039Z,68.10
2023-03-13T00:11:15.523Z,68.07
2023-03-13T00:13:44.475Z,67.99
2023-03-13T00:16:14.965Z,67.93
2023-03-13T00:18:47.513Z,67.84
2023-03-13T00:21:16.094Z,68.07
2023-03-13T00:23:44.222Z,68.49
2023-03-13T00:26:14.407Z,68.46
2023-03-13T00:28:45.617Z,68.71
2023-03-13T00:31:23.233Z,68.40
2023-03-13T00:33:53.608Z,68.52
2023-03-13T00:36:24.695Z,68.38
2023-03-13T00:38:54.038Z,68.51
2023-03-13T00:41:24.520Z,68.39
2023-03-13T00:43:53.344Z,68.48
2023-03-13T00:46:24.147Z,68.01
2023-03-13T00:48:52.980Z,68.19
2023-03-13T00:51:23.884Z,68.36
2023-03-13T00:53:51.872Z,68.19
2023-03-13T00:56:20.920Z,67.97
2023-03-13T00:58:50.168Z,68.38
2023-03-13T01:01:21.175Z,68.45
2023-03-13T01:04:01.273Z,68.58
2023-03-13T01:06:32.790Z,68.04
2023-03-13T01:09:01.503Z,68.39
2023-03-13T01:11:32.426Z,68.55
2023-03-13T01:14:03.706Z,68.37
2023-03-13T01:16:33.480Z,68.55
2023-03-13T01:19:04.355Z,68.29
2023-03-13T01:21:32.346Z,68.39
2023-03-13T01:24:00.115Z,68.20
2023-03-13T01:26:28.437Z,68.10
2023-03-13T01:28:56.969Z,68.39
2023-03-13T01:31:26.647Z,68.14
2023-03-13T01:33:56.779Z,68.98
2023-03-13T01:36:25.490Z,69.49
2023-03-13T01:38:55.877Z,69.45
2023-03-13T01:41:24.815Z,69.78
2023-03-13T01:43:53.238Z,70.22
2023-03-13T01:46:24.917Z,70.49
2023-03-13T01:49:28.096Z,71.49
2023-03-13T01:52:26.317Z,71.06
2023-03-13T01:55:11.980Z,72.17
2023-03-13T01:57:44.554Z,71.94
2023-03-13T02:00:23.853Z,71.76
2023-03-13T02:02:55.389Z,72.86
2023-03-13T02:05:27.030Z,73.00
2023-03-13T02:08:04.405Z,73.35
2023-03-13T02:10:37.235Z,73.45
2023-03-13T02:13:04.944Z,73.78
2023-03-13T02:15:34.278Z,73.72
2023-03-13T02:18:02.571Z,74.23
2023-03-13T02:20:30.696Z,74.60
2023-03-13T02:23:20.274Z,74.06
2023-03-13T02:25:51.275Z,73.97
2023-03-13T02:28:33.429Z,74.19
2023-03-13T02:31:02.248Z,74.02
2023-03-13T02:33:35.773Z,73.90
2023-03-13T02:36:05.364Z,73.96
2023-03-13T02:38:39.305Z,74.15
2023-03-13T02:41:08.612Z,73.90
2023-03-13T02:43:38.347Z,74.28
2023-03-13T02:46:13.095Z,74.57
2023-03-13T02:48:46.131Z,74.47
2023-03-13T02:51:27.402Z,74.74
2023-03-13T02:53:59.396Z,74.82
2023-03-13T02:56:32.193Z,74.79
2023-03-13T02:59:00.521Z,74.82
2023-03-13T03:01:28.312Z,74.86
2023-03-13T03:03:56.052Z,74.99
2023-03-13T03:06:23.776Z,74.91
2023-03-13T03:08:51.772Z,75.16
2023-03-13T03:11:19.625Z,75.23
2023-03-13T03:13:49.946Z,75.17
2023-03-13T03:16:20.849Z,75.35
2023-03-13T03:18:48.726Z,75.43
2023-03-13T03:21:16.862Z,75.36
2023-03-13T03:23:44.590Z,75.63
2023-03-13T03:26:12.371Z,75.60
2023-03-13T03:28:40.214Z,76.00
2023-03-13T03:31:13.838Z,76.18
2023-03-13T03:33:42.651Z,76.40
2023-03-13T03:36:14.858Z,76.74
2023-03-13T03:38:44.130Z,76.85
2023-03-13T03:41:16.887Z,77.11
2023-03-13T03:43:45.534Z,77.20
2023-03-13T03:46:15.027Z,77.86
2023-03-13T03:48:42.874Z,78.03
2023-03-13T03:51:11.752Z,77.71
2023-03-13T03:53:41.164Z,78.23
2023-03-13T03:56:08.960Z,78.55
2023-03-13T03:58:39.311Z,78.34
2023-03-13T04:01:12.540Z,78.80
2023-03-13T04:03:40.490Z,78.91
2023-03-13T04:06:09.439Z,79.33
2023-03-13T04:08:37.161Z,79.43
2023-03-13T04:11:05.497Z,79.48
2023-03-13T04:13:37.666Z,79.29
2023-03-13T04:16:09.697Z,79.44
2023-03-13T04:18:37.865Z,79.99
2023-03-13T04:21:06.482Z,80.35
2023-03-13T04:23:47.381Z,81.16
2023-03-13T04:26:15.888Z,80.94
2023-03-13T04:28:44.237Z,80.96
2023-03-13T04:31:16.128Z,81.38
2023-03-13T04:34:09.869Z,81.11
2023-03-13T04:36:53.693Z,80.96
2023-03-13T04:39:42.098Z,82.02
2023-03-13T04:42:28.603Z,82.51
2023-03-13T04:45:12.036Z,82.56
2023-03-13T04:47:57.983Z,82.53
2023-03-13T04:51:01.046Z,83.49
2023-03-13T04:54:01.280Z,83.32
2023-03-13T04:56:43.957Z,82.98
2023-03-13T04:59:32.069Z,83.17
2023-03-13T05:02:18.722Z,83.38
2023-03-13T05:05:24.971Z,83.55
2023-03-13T05:08:02.612Z,83.41
2023-03-13T05:10:50.484Z,83.54
2023-03-13T05:13:44.218Z,84.33
2023-03-13T05:16:29.951Z,84.12
2023-03-13T05:19:10.750Z,84.38
2023-03-13T05:21:50.338Z,84.56
2023-03-13T05:24:42.031Z,84.58
2023-03-13T05:27:47.957Z,84.23
2023-03-13T05:30:30.873Z,85.82
2023-03-13T05:33:13.819Z,85.93
2023-03-13T05:36:01.845Z,85.66
2023-03-13T05:38:56.111Z,86.15
2023-03-13T05:41:35.351Z,86.36
2023-03-13T05:44:38.699Z,86.49
2023-03-13T05:47:18.672Z,86.51
2023-03-13T05:50:19.117Z,86.64
2023-03-13T05:53:05.558Z,86.25
2023-03-13T05:55:55.290Z,86.65
2023-03-13T05:58:43.219Z,86.40
2023-03-13T06:01:31.312Z,87.32
2023-03-13T06:04:12.990Z,87.22
2023-03-13T06:06:41.635Z,87.20
2023-03-13T06:09:11.723Z,87.60
2023-03-13T06:11:39.881Z,87.45
2023-03-13T06:14:07.621Z,87.53
2023-03-13T06:16:42.566Z,88.10
2023-03-13T06:19:20.161Z,88.34
2023-03-13T06:21:48.120Z,88.60
2023-03-13T06:24:16.012Z,88.09
2023-03-13T06:26:43.866Z,88.20
2023-03-13T06:29:11.854Z,88.21
2023-03-13T06:31:39.790Z,88.07
2023-03-13T06:34:10.936Z,87.82
2023-03-13T06:36:38.731Z,88.06
2023-03-13T06:39:06.570Z,87.83
2023-03-13T06:41:34.363Z,87.72
2023-03-13T06:44:02.318Z,87.87
2023-03-13T06:46:30.277Z,87.58
2023-03-13T06:48:58.894Z,87.77
2023-03-13T06:51:26.720Z,87.40
2023-03-13T06:53:54.435Z,87.40
2023-03-13T06:56:22.173Z,87.48
2023-03-13T06:58:50.658Z,87.26
2023-03-13T07:01:18.964Z,87.15
2023-03-13T07:03:48.856Z,87.04
2023-03-13T07:06:17.063Z,86.96
2023-03-13T07:08:45.087Z,86.61
2023-03-13T07:11:14.864Z,86.61
2023-03-13T07:13:42.840Z,86.39
2023-03-13T07:16:12.827Z,86.16
2023-03-13T07:18:44.777Z,86.18
2023-03-13T07:21:13.373Z,86.23
2023-03-13T07:23:41.469Z,85.76
2023-03-13T07:26:15.269Z,85.76
2023-03-13T07:28:44.245Z,85.44
2023-03-13T07:31:20.673Z,85.33
2023-03-13T07:33:48.513Z,84.99
2023-03-13T07:36:16.679Z,84.76
2023-03-13T07:38:51.230Z,84.50
2023-03-13T07:41:20.412Z,84.63
2023-03-13T07:43:48.396Z,84.41
2023-03-13T07:46:21.816Z,84.36
2023-03-13T07:48:50.250Z,83.98
2023-03-13T07:51:30.294Z,83.87
2023-03-13T07:54:04.829Z,83.47
2023-03-13T07:56:32.523Z,83.24
2023-03-13T07:59:00.235Z,83.26
2023-03-13T08:01:30.687Z,82.95
2023-03-13T08:04:01.680Z,82.74
2023-03-13T08:06:35.662Z,82.65
2023-03-13T08:09:04.188Z,82.26
2023-03-13T08:11:31.890Z,82.12
2023-03-13T08:13:59.864Z,81.58
2023-03-13T08:16:30.178Z,81.17
2023-03-13T08:18:59.015Z,80.74
2023-03-13T08:21:28.971Z,80.72
2023-03-13T08:23:59.319Z,80.02
2023-03-13T08:26:29.473Z,79.80
2023-03-13T08:29:02.833Z,79.15
2023-03-13T08:31:57.083Z,78.59
2023-03-13T08:34:24.678Z,78.37
2023-03-13T08:36:52.965Z,78.36
2023-03-13T08:39:21.151Z,78.10
2023-03-13T08:41:48.958Z,77.84
2023-03-13T08:44:18.856Z,77.71
2023-03-13T08:46:49.096Z,77.57
2023-03-13T08:49:17.894Z,77.15
2023-03-13T08:51:46.627Z,76.89
2023-03-13T08:54:14.534Z,76.08
2023-03-13T08:56:43.636Z,75.67
2023-03-13T08:59:11.431Z,75.50
2023-03-13T09:01:39.222Z,75.54
2023-03-13T09:04:08.096Z,75.14
2023-03-13T09:06:38.054Z,74.49
2023-03-13T09:09:07.523Z,74.01
2023-03-13T09:11:36.958Z,73.83
2023-03-13T09:14:05.850Z,73.65
2023-03-13T09:16:34.941Z,73.30
2023-03-13T09:19:02.870Z,72.86
2023-03-13T09:21:34.016Z,71.69
2023-03-13T09:24:02.375Z,71.42
2023-03-13T09:26:30.875Z,71.07
2023-03-13T09:28:58.852Z,71.11
2023-03-13T09:31:30.226Z,70.95
2023-03-13T09:33:59.331Z,71.14
2023-03-13T09:36:28.003Z,71.21
2023-03-13T09:38:58.238Z,70.86
2023-03-13T09:41:36.207Z,70.75
2023-03-13T09:44:20.806Z,70.64
2023-03-13T09:46:54.203Z,70.77
2023-03-13T09:49:39.949Z,70.94
2023-03-13T09:52:10.420Z,70.51
2023-03-13T09:54:41.743Z,70.40
2023-03-13T09:57:47.794Z,70.87
2023-03-13T10:00:21.631Z,70.81
2023-03-13T10:02:57.424Z,70.93
2023-03-13T10:05:27.939Z,71.04
2023-03-13T10:08:12.910Z,70.71
2023-03-13T10:10:53.859Z,70.99
2023-03-13T10:13:40.551Z,71.20
2023-03-13T10:16:15.688Z,71.25
2023-03-13T10:18:49.142Z,71.12
2023-03-13T10:21:22.295Z,70.55
2023-03-13T10:24:22.385Z,70.48
2023-03-13T10:26:50.129Z,70.61
2023-03-13T10:29:31.567Z,70.85
2023-03-13T10:32:03.348Z,70.84
2023-03-13T10:34:46.124Z,70.50
2023-03-13T10:37:16.187Z,70.81
2023-03-13T10:39:43.986Z,70.45
2023-03-13T10:42:24.321Z,70.30
2023-03-13T10:44:57.917Z,70.05
2023-03-13T10:47:25.925Z,69.99
2023-03-13T10:49:58.013Z,69.81
2023-03-13T10:52:33.347Z,69.79
2023-03-13T10:55:04.668Z,69.49
2023-03-13T10:57:35.228Z,69.26
2023-03-13T11:00:25.354Z,68.99
2023-03-13T11:02:54.481Z,68.66
2023-03-13T11:05:25.354Z,68.61
2023-03-13T11:07:53.674Z,68.52
2023-03-13T11:10:31.191Z,68.10
2023-03-13T11:12:59.199Z,67.40
2023-03-13T11:15:51.918Z,66.88
2023-03-13T11:18:42.122Z,66.84
2023-03-13T11:21:21.114Z,65.76
2023-03-13T11:24:02.668Z,65.50
2023-03-13T11:26:52.392Z,64.99
2023-03-13T11:30:08.186Z,64.27
2023-03-13T11:32:43.352Z,63.19
2023-03-13T11:35:21.669Z,63.22
2023-03-13T11:37:52.483Z,63.11
2023-03-13T11:40:36.021Z,62.50
2023-03-13T11:43:24.581Z,62.05
2023-03-13T11:46:12.626Z,62.04
2023-03-13T11:48:43.424Z,62.33
2023-03-13T11:51:20.976Z,62.22
2023-03-13T11:54:23.217Z,62.43
2023-03-13T11:56:56.833Z,62.27
2023-03-13T12:00:01.331Z,62.43
2023-03-13T12:02:57.701Z,61.86
2023-03-13T12:05:28.830Z,62.00
2023-03-13T12:08:07.568Z,62.26
2023-03-13T12:10:44.244Z,62.34
2023-03-13T12:13:17.729Z,63.06
2023-03-13T12:15:53.629Z,63.64
2023-03-13T12:18:30.098Z,64.09
2023-03-13T12:21:16.379Z,64.24
2023-03-13T12:23:52.921Z,64.64
2023-03-13T12:26:25.430Z,65.07
2023-03-13T12:29:25.261Z,65.69
2023-03-13T12:31:52.963Z,66.49
2023-03-13T12:34:30.999Z,66.74
2023-03-13T12:37:06.849Z,67.31
2023-03-13T12:39:56.492Z,67.97
2023-03-13T12:42:44.166Z,68.76
2023-03-13T12:45:20.100Z,69.51
2023-03-13T12:48:02.215Z,69.93
2023-03-13T12:50:44.054Z,70.79
2023-03-13T12:53:14.821Z,71.63
2023-03-13T12:56:17.588Z,71.91
2023-03-13T12:58:50.306Z,72.74
2023-03-13T13:01:49.974Z,73.54
2023-03-13T13:04:22.246Z,74.40
2023-03-13T13:07:07.154Z,75.37
2023-03-13T13:09:59.848Z,75.98
2023-03-13T13:12:27.777Z,77.35
2023-03-13T13:15:00.049Z,77.18
2023-03-13T13:17:34.537Z,78.73
2023-03-13T13:20:39.181Z,78.75
2023-03-13T13:23:27.661Z,79.64
2023-03-13T13:26:16.622Z,80.12
2023-03-13T13:28:44.356Z,80.80
2023-03-13T13:31:56.840Z,81.11
2023-03-13T13:34:36.420Z,81.17
2023-03-13T13:37:29.055Z,81.65
2023-03-13T13:40:16.076Z,82.29
2023-03-13T13:42:47.682Z,82.89
2023-03-13T13:45:15.362Z,82.94
2023-03-13T13:47:48.480Z,83.09
2023-03-13T13:50:27.648Z,83.36
2023-03-13T13:53:30.319Z,83.64
2023-03-13T13:55:58.809Z,84.17
2023-03-13T13:58:30.506Z,84.53
2023-03-13T14:01:10.993Z,84.79
2023-03-13T14:03:42.285Z,84.60
2023-03-13T14:06:20.274Z,84.90
2023-03-13T14:08:51.455Z,85.17
2023-03-13T14:11:31.411Z,85.08
2023-03-13T14:14:11.072Z,85.27
2023-03-13T14:16:39.766Z,85.34
2023-03-13T14:19:22.521Z,85.22
2023-03-13T14:21:50.408Z,85.46
2023-03-13T14:24:18.252Z,85.16
2023-03-13T14:26:46.017Z,85.42
2023-03-13T14:29:25.887Z,85.39
2023-03-13T14:31:56.373Z,85.34
2023-03-13T14:34:24.757Z,85.05
2023-03-13T14:37:14.863Z,85.14
2023-03-13T14:39:46.192Z,84.97
2023-03-13T14:42:16.729Z,84.88
2023-03-13T14:44:48.670Z,84.66
2023-03-13T14:47:16.412Z,84.39
2023-03-13T14:49:47.094Z,84.11
2023-03-13T14:52:24.343Z,83.76
2023-03-13T14:55:07.877Z,83.63
2023-03-13T14:57:36.133Z,83.74
2023-03-13T15:00:35.026Z,83.97
2023-03-13T15:03:19.957Z,84.26
2023-03-13T15:05:50.664Z,84.17
2023-03-13T15:08:22.143Z,84.43
2023-03-13T15:10:50.589Z,84.61
2023-03-13T15:13:24.618Z,84.82
2023-03-13T15:15:52.974Z,84.89
2023-03-13T15:18:23.898Z,85.12
2023-03-13T15:20:57.866Z,85.14
2023-03-13T15:23:26.078Z,85.23
2023-03-13T15:25:53.981Z,85.39
2023-03-13T15:28:23.712Z,85.17
2023-03-13T15:30:52.349Z,85.18
2023-03-13T15:33:23.070Z,84.98
2023-03-13T15:35:51.206Z,84.82
2023-03-13T15:38:22.671Z,84.73
2023-03-13T15:40:50.525Z,84.95
2023-03-13T15:43:20.009Z,85.16
2023-03-13T15:45:51.774Z,85.24
2023-03-13T15:48:28.264Z,85.46
2023-03-13T15:50:59.631Z,85.67
2023-03-13T15:53:28.770Z,85.70
2023-03-13T15:55:59.106Z,86.23
2023-03-13T15:58:28.786Z,86.15
2023-03-13T16:00:57.372Z,86.18
2023-03-13T16:03:28.295Z,86.17
2023-03-13T16:05:57.488Z,86.01
2023-03-13T16:08:37.345Z,85.76
2023-03-13T16:11:05.680Z,86.00
2023-03-13T16:13:33.544Z,85.92
2023-03-13T16:16:01.292Z,85.72
2023-03-13T16:18:29.263Z,85.69
2023-03-13T16:20:57.002Z,85.47
2023-03-13T16:23:25.089Z,85.52
2023-03-13T16:25:52.871Z,85.32
2023-03-13T16:28:20.629Z,85.15
2023-03-13T16:30:48.522Z,85.16
2023-03-13T16:33:16.428Z,84.77
2023-03-13T16:35:44.185Z,84.52
2023-03-13T16:38:12.139Z,84.32
2023-03-13T16:40:40.088Z,84.12
2023-03-13T16:43:11.470Z,84.09
2023-03-13T16:45:39.298Z,83.92
2023-03-13T16:48:07.216Z,83.60
2023-03-13T16:50:37.901Z,83.33
2023-03-13T16:53:05.776Z,83.23
2023-03-13T16:55:36.833Z,83.00
2023-03-13T16:58:05.226Z,82.78
2023-03-13T17:00:33.507Z,82.72
2023-03-13T17:03:01.503Z,82.56
2023-03-13T17:05:29.682Z,82.17
2023-03-13T17:07:57.635Z,81.88
2023-03-13T17:10:28.655Z,81.66
2023-03-13T17:12:56.431Z,81.27
2023-03-13T17:15:25.457Z,81.02
2023-03-13T17:17:54.283Z,80.75
2023-03-13T17:20:27.252Z,80.56
2023-03-13T17:22:56.784Z,80.40
2023-03-13T17:25:25.287Z,79.89
2023-03-13T17:27:53.469Z,79.67
2023-03-13T17:30:30.243Z,79.47
2023-03-13T17:32:59.137Z,79.03
2023-03-13T17:35:27.086Z,78.64
2023-03-13T17:37:54.971Z,78.68
2023-03-13T17:40:25.633Z,78.05
2023-03-13T17:42:53.490Z,77.90
2023-03-13T17:45:21.535Z,77.72
2023-03-13T17:47:50.278Z,77.72
2023-03-13T17:50:22.014Z,77.21
2023-03-13T17:52:50.342Z,76.73
2023-03-13T17:55:18.527Z,76.99
2023-03-13T17:57:48.282Z,76.57
2023-03-13T18:00:31.913Z,76.50
2023-03-13T18:02:59.997Z,76.41
2023-03-13T18:05:28.190Z,76.05
2023-03-13T18:07:57.179Z,75.88
2023-03-13T18:10:27.617Z,75.65
2023-03-13T18:12:55.961Z,74.94
2023-03-13T18:15:25.768Z,74.71
2023-03-13T18:17:54.032Z,74.73
2023-03-13T18:20:31.962Z,74.54
2023-03-13T18:23:00.739Z,74.19
2023-03-13T18:25:29.782Z,73.98
2023-03-13T18:27:58.679Z,73.80
2023-03-13T18:30:27.579Z,73.74
2023-03-13T18:32:56.385Z,73.70
2023-03-13T18:35:24.091Z,73.18
2023-03-13T18:37:51.798Z,72.86
2023-03-13T18:40:23.687Z,72.77
2023-03-13T18:42:51.923Z,72.46
2023-03-13T18:45:21.846Z,72.04
2023-03-13T18:47:49.812Z,71.85
2023-03-13T18:50:33.220Z,71.69
2023-03-13T18:53:01.283Z,72.09
2023-03-13T18:55:31.020Z,72.07
2023-03-13T18:57:58.782Z,71.73
2023-03-13T19:00:29.396Z,71.70
2023-03-13T19:02:57.897Z,71.63
2023-03-13T19:05:26.134Z,71.49
2023-03-13T19:07:53.955Z,71.44
2023-03-13T19:10:25.165Z,71.20
2023-03-13T19:12:55.017Z,71.10
2023-03-13T19:15:27.229Z,70.89
2023-03-13T19:17:56.187Z,70.60
2023-03-13T19:20:24.633Z,70.63
2023-03-13T19:22:54.434Z,70.46
2023-03-13T19:25:23.322Z,70.26
2023-03-13T19:27:51.074Z,70.36
2023-03-13T19:30:24.808Z,70.30
2023-03-13T19:32:52.991Z,70.18
2023-03-13T19:35:21.965Z,69.95
2023-03-13T19:37:50.233Z,70.03
2023-03-13T19:40:20.770Z,70.12
2023-03-13T19:42:48.838Z,70.18
2023-03-13T19:45:21.818Z,69.99
2023-03-13T19:47:50.353Z,69.73
2023-03-13T19:50:21.745Z,69.97
2023-03-13T19:52:49.664Z,69.89
2023-03-13T19:55:17.465Z,70.00
2023-03-13T19:57:45.668Z,70.34
2023-03-13T20:00:25.547Z,70.49
2023-03-13T20:02:55.178Z,70.52
2023-03-13T20:05:27.186Z,70.41
2023-03-13T20:07:55.368Z,70.10
2023-03-13T20:10:23.565Z,70.05
2023-03-13T20:12:53.555Z,69.82
2023-03-13T20:15:21.327Z,69.95
2023-03-13T20:17:49.136Z,69.89
2023-03-13T20:20:17.282Z,69.78
2023-03-13T20:22:44.967Z,69.28
2023-03-13T20:25:12.787Z,69.39
2023-03-13T20:27:40.630Z,69.34
2023-03-13T20:30:09.020Z,69.41
2023-03-13T20:32:39.408Z,69.28
2023-03-13T20:35:14.188Z,69.12
2023-03-13T20:37:42.271Z,68.90
2023-03-13T20:40:11.112Z,69.08
2023-03-13T20:42:39.372Z,68.88
2023-03-13T20:45:10.812Z,68.99
2023-03-13T20:47:38.579Z,68.74
2023-03-13T20:50:07.674Z,68.62
2023-03-13T20:52:35.439Z,68.49
2023-03-13T20:55:03.481Z,68.51
2023-03-13T20:57:31.263Z,68.35
2023-03-13T20:59:58.973Z,67.96
2023-03-13T21:02:26.710Z,68.03
2023-03-13T21:04:54.476Z,67.75
2023-03-13T21:07:22.296Z,67.73
2023-03-13T21:09:50.083Z,67.74
2023-03-13T21:12:17.846Z,67.75
2023-03-13T21:14:46.365Z,67.98
2023-03-13T21:17:15.810Z,68.03
2023-03-13T21:19:43.820Z,68.30
2023-03-13T21:22:11.618Z,68.45
2023-03-13T21:24:39.776Z,68.37
2023-03-13T21:27:07.601Z,68.48
2023-03-13T21:29:35.319Z,68.34
2023-03-13T21:32:03.076Z,68.57
2023-03-13T21:34:30.960Z,68.87
2023-03-13T21:36:58.701Z,68.93
2023-03-13T21:39:26.470Z,68.80
2023-03-13T21:41:54.371Z,68.76
2023-03-13T21:44:22.273Z,69.09
2023-03-13T21:46:51.759Z,69.08
2023-03-13T21:49:19.592Z,69.15
2023-03-13T21:51:47.358Z,69.03
2023-03-13T21:54:15.056Z,68.87
2023-03-13T21:56:42.955Z,69.34
2023-03-13T21:59:10.640Z,69.46
2023-03-13T22:01:38.415Z,69.53
2023-03-13T22:04:06.189Z,69.52
2023-03-13T22:06:34.303Z,69.51
2023-03-13T22:09:03.942Z,69.79
2023-03-13T22:11:32.380Z,69.76
2023-03-13T22:14:00.401Z,69.56
2023-03-13T22:16:28.327Z,69.47
2023-03-13T22:18:56.193Z,69.61
2023-03-13T22:21:24.231Z,69.62
2023-03-13T22:23:52.081Z,69.54
2023-03-13T22:26:19.849Z,69.46
2023-03-13T22:28:47.561Z,69.34
2023-03-13T22:31:15.269Z,69.45
2023-03-13T22:33:43.174Z,69.38
2023-03-13T22:36:11.249Z,69.17
2023-03-13T22:38:39.933Z,69.14
2023-03-13T22:41:11.220Z,69.08
2023-03-13T22:43:39.206Z,68.96
2023-03-13T22:46:07.452Z,69.11
2023-03-13T22:48:36.194Z,69.09
2023-03-13T22:51:08.560Z,69.19
2023-03-13T22:53:38.859Z,69.44
2023-03-13T22:56:09.954Z,69.14
2023-03-13T22:58:39.186Z,69.19
2023-03-13T23:01:09.106Z,69.24
2023-03-13T23:03:36.957Z,69.48
2023-03-13T23:06:07.046Z,69.50
2023-03-13T23:08:35.232Z,69.40
2023-03-13T23:11:03.869Z,69.54
2023-03-13T23:13:32.709Z,69.67
2023-03-13T23:16:00.460Z,69.62
2023-03-13T23:18:28.312Z,69.71
2023-03-13T23:20:56.186Z,69.22
2023-03-13T23:23:24.288Z,69.12
2023-03-13T23:25:52.008Z,69.23
2023-03-13T23:28:19.732Z,69.09
2023-03-13T23:30:47.440Z,69.09
2023-03-13T23:33:15.252Z,69.04
2023-03-13T23:35:43.985Z,68.94
2023-03-13T23:38:12.606Z,69.05
2023-03-13T23:40:40.404Z,69.26
2023-03-13T23:43:08.074Z,69.28
2023-03-13T23:45:38.057Z,69.33
2023-03-13T23:48:06.085Z,69.43
2023-03-13T23:50:33.899Z,69.67
2023-03-13T23:53:01.616Z,69.64
2023-03-13T23:55:29.380Z,69.72
2023-03-13T23:57:57.072Z,69.72
